sensor_id;sensor_type;location;lat;lon;timestamp;P1;durP1;ratioP1;P2;durP2;ratioP2
40611;SDS011;26317;44.894;20.286;2023-11-19T00:01:18;13.23;;;11.18;;
40611;SDS011;26317;44.894;20.286;2023-11-19T00:03:54;16.95;;;11.70;;
40611;SDS011;26317;44.894;20.286;2023-11-19T00:06:29;14.85;;;12.02;;
40611;SDS011;26317;44.894;20.286;2023-11-19T00:09:04;15.57;;;11.30;;
40611;SDS011;26317;44.894;20.286;2023-11-19T00:11:57;16.50;;;11.63;;
40611;SDS011;26317;44.894;20.286;2023-11-19T00:14:35;15.55;;;11.65;;
40611;SDS011;26317;44.894;20.286;2023-11-19T00:17:07;13.63;;;10.55;;
40611;SDS011;26317;44.894;20.286;2023-11-19T00:19:42;18.55;;;11.35;;
40611;SDS011;26317;44.894;20.286;2023-11-19T00:22:22;19.88;;;11.57;;
40611;SDS011;26317;44.894;20.286;2023-11-19T00:25:00;12.85;;;11.13;;
40611;SDS011;26317;44.894;20.286;2023-11-19T00:27:45;15.90;;;12.40;;
40611;SDS011;26317;44.894;20.286;2023-11-19T00:30:27;17.85;;;12.82;;
40611;SDS011;26317;44.894;20.286;2023-11-19T00:33:07;16.20;;;12.27;;
40611;SDS011;26317;44.894;20.286;2023-11-19T00:35:41;16.02;;;12.38;;
40611;SDS011;26317;44.894;20.286;2023-11-19T00:38:25;17.27;;;12.20;;
40611;SDS011;26317;44.894;20.286;2023-11-19T00:41:00;15.95;;;13.02;;
40611;SDS011;26317;44.894;20.286;2023-11-19T00:43:41;17.30;;;13.02;;
40611;SDS011;26317;44.894;20.286;2023-11-19T00:46:23;17.10;;;12.18;;
40611;SDS011;26317;44.894;20.286;2023-11-19T00:49:00;15.57;;;12.30;;
40611;SDS011;26317;44.894;20.286;2023-11-19T00:51:44;16.38;;;11.88;;
40611;SDS011;26317;44.894;20.286;2023-11-19T00:54:19;15.82;;;11.98;;
40611;SDS011;26317;44.894;20.286;2023-11-19T00:56:58;15.98;;;12.18;;
40611;SDS011;26317;44.894;20.286;2023-11-19T00:59:46;17.83;;;12.77;;
40611;SDS011;26317;44.894;20.286;2023-11-19T01:02:36;15.05;;;10.98;;
40611;SDS011;26317;44.894;20.286;2023-11-19T01:05:23;13.90;;;10.82;;
40611;SDS011;26317;44.894;20.286;2023-11-19T01:08:17;18.63;;;12.48;;
40611;SDS011;26317;44.894;20.286;2023-11-19T01:10:58;16.90;;;12.40;;
40611;SDS011;26317;44.894;20.286;2023-11-19T01:13:35;20.52;;;12.07;;
40611;SDS011;26317;44.894;20.286;2023-11-19T01:16:21;15.23;;;10.98;;
40611;SDS011;26317;44.894;20.286;2023-11-19T01:18:58;14.95;;;11.27;;
40611;SDS011;26317;44.894;20.286;2023-11-19T01:21:47;16.92;;;12.40;;
40611;SDS011;26317;44.894;20.286;2023-11-19T01:24:25;15.18;;;11.98;;
40611;SDS011;26317;44.894;20.286;2023-11-19T01:27:14;13.50;;;10.48;;
40611;SDS011;26317;44.894;20.286;2023-11-19T01:29:48;17.40;;;11.73;;
40611;SDS011;26317;44.894;20.286;2023-11-19T01:32:29;16.20;;;12.63;;
40611;SDS011;26317;44.894;20.286;2023-11-19T01:35:11;16.05;;;12.48;;
40611;SDS011;26317;44.894;20.286;2023-11-19T01:38:07;19.23;;;12.30;;
40611;SDS011;26317;44.894;20.286;2023-11-19T01:40:45;24.25;;;14.23;;
40611;SDS011;26317;44.894;20.286;2023-11-19T01:43:33;21.45;;;13.82;;
40611;SDS011;26317;44.894;20.286;2023-11-19T01:46:13;18.88;;;14.27;;
40611;SDS011;26317;44.894;20.286;2023-11-19T01:48:54;20.48;;;14.18;;
40611;SDS011;26317;44.894;20.286;2023-11-19T01:51:37;20.88;;;13.05;;
40611;SDS011;26317;44.894;20.286;2023-11-19T01:54:14;15.57;;;12.82;;
40611;SDS011;26317;44.894;20.286;2023-11-19T01:56:46;17.48;;;12.35;;
40611;SDS011;26317;44.894;20.286;2023-11-19T01:59:35;16.02;;;12.75;;
40611;SDS011;26317;44.894;20.286;2023-11-19T02:02:14;15.23;;;11.85;;
40611;SDS011;26317;44.894;20.286;2023-11-19T02:04:56;16.90;;;12.82;;
40611;SDS011;26317;44.894;20.286;2023-11-19T02:07:34;14.00;;;11.43;;
40611;SDS011;26317;44.894;20.286;2023-11-19T02:10:13;17.15;;;12.57;;
40611;SDS011;26317;44.894;20.286;2023-11-19T02:12:57;18.08;;;12.55;;
40611;SDS011;26317;44.894;20.286;2023-11-19T02:15:38;20.92;;;13.55;;
40611;SDS011;26317;44.894;20.286;2023-11-19T02:18:22;19.33;;;13.90;;
40611;SDS011;26317;44.894;20.286;2023-11-19T02:23:55;13.68;;;11.27;;
40611;SDS011;26317;44.894;20.286;2023-11-19T02:26:39;13.05;;;11.30;;
40611;SDS011;26317;44.894;20.286;2023-11-19T02:29:38;13.35;;;10.88;;
40611;SDS011;26317;44.894;20.286;2023-11-19T02:32:15;14.65;;;11.20;;
40611;SDS011;26317;44.894;20.286;2023-11-19T02:34:59;13.82;;;11.30;;
40611;SDS011;26317;44.894;20.286;2023-11-19T02:37:39;14.75;;;11.30;;
40611;SDS011;26317;44.894;20.286;2023-11-19T02:40:21;13.13;;;11.35;;
40611;SDS011;26317;44.894;20.286;2023-11-19T02:43:01;14.05;;;11.88;;
40611;SDS011;26317;44.894;20.286;2023-11-19T02:45:49;12.80;;;11.23;;
40611;SDS011;26317;44.894;20.286;2023-11-19T02:48:29;14.13;;;11.45;;
40611;SDS011;26317;44.894;20.286;2023-11-19T02:51:10;12.73;;;11.30;;
40611;SDS011;26317;44.894;20.286;2023-11-19T02:56:27;17.23;;;11.70;;
40611;SDS011;26317;44.894;20.286;2023-11-19T02:59:10;13.85;;;11.52;;
40611;SDS011;26317;44.894;20.286;2023-11-19T03:02:01;15.18;;;11.30;;
40611;SDS011;26317;44.894;20.286;2023-11-19T03:04:39;12.90;;;11.20;;
40611;SDS011;26317;44.894;20.286;2023-11-19T03:07:31;15.50;;;12.40;;
40611;SDS011;26317;44.894;20.286;2023-11-19T03:10:09;13.35;;;11.68;;
40611;SDS011;26317;44.894;20.286;2023-11-19T03:12:44;13.30;;;11.35;;
40611;SDS011;26317;44.894;20.286;2023-11-19T03:15:25;14.75;;;11.70;;
40611;SDS011;26317;44.894;20.286;2023-11-19T03:18:29;14.02;;;11.90;;
40611;SDS011;26317;44.894;20.286;2023-11-19T03:21:07;15.13;;;11.57;;
40611;SDS011;26317;44.894;20.286;2023-11-19T03:24:01;16.73;;;11.63;;
40611;SDS011;26317;44.894;20.286;2023-11-19T03:26:36;17.15;;;12.52;;
40611;SDS011;26317;44.894;20.286;2023-11-19T03:29:17;13.95;;;12.45;;
40611;SDS011;26317;44.894;20.286;2023-11-19T03:32:03;19.55;;;12.90;;
40611;SDS011;26317;44.894;20.286;2023-11-19T03:34:46;17.33;;;12.30;;
40611;SDS011;26317;44.894;20.286;2023-11-19T03:37:33;18.20;;;11.10;;
40611;SDS011;26317;44.894;20.286;2023-11-19T03:40:11;12.93;;;11.30;;
40611;SDS011;26317;44.894;20.286;2023-11-19T03:43:06;14.20;;;12.18;;
40611;SDS011;26317;44.894;20.286;2023-11-19T03:45:44;14.35;;;12.25;;
40611;SDS011;26317;44.894;20.286;2023-11-19T03:48:17;14.48;;;10.85;;
40611;SDS011;26317;44.894;20.286;2023-11-19T03:50:52;17.65;;;13.05;;
40611;SDS011;26317;44.894;20.286;2023-11-19T03:53:38;17.85;;;12.57;;
40611;SDS011;26317;44.894;20.286;2023-11-19T03:56:26;15.98;;;12.55;;
40611;SDS011;26317;44.894;20.286;2023-11-19T03:59:03;17.08;;;12.65;;
40611;SDS011;26317;44.894;20.286;2023-11-19T04:01:46;20.05;;;13.00;;
40611;SDS011;26317;44.894;20.286;2023-11-19T04:04:28;14.63;;;12.23;;
40611;SDS011;26317;44.894;20.286;2023-11-19T04:07:08;15.60;;;12.80;;
40611;SDS011;26317;44.894;20.286;2023-11-19T04:09:48;18.67;;;12.45;;
40611;SDS011;26317;44.894;20.286;2023-11-19T04:12:21;16.02;;;12.00;;
40611;SDS011;26317;44.894;20.286;2023-11-19T04:14:56;14.50;;;12.32;;
40611;SDS011;26317;44.894;20.286;2023-11-19T04:17:38;16.40;;;11.98;;
40611;SDS011;26317;44.894;20.286;2023-11-19T04:20:15;14.90;;;11.75;;
40611;SDS011;26317;44.894;20.286;2023-11-19T04:23:07;14.77;;;11.77;;
40611;SDS011;26317;44.894;20.286;2023-11-19T04:25:46;18.35;;;12.43;;
40611;SDS011;26317;44.894;20.286;2023-11-19T04:28:23;15.57;;;11.95;;
40611;SDS011;26317;44.894;20.286;2023-11-19T04:31:01;18.02;;;12.52;;
40611;SDS011;26317;44.894;20.286;2023-11-19T04:33:40;15.32;;;12.23;;
40611;SDS011;26317;44.894;20.286;2023-11-19T04:36:18;19.73;;;12.73;;
40611;SDS011;26317;44.894;20.286;2023-11-19T04:38:58;15.93;;;11.48;;
40611;SDS011;26317;44.894;20.286;2023-11-19T04:41:48;15.05;;;11.95;;
40611;SDS011;26317;44.894;20.286;2023-11-19T04:44:25;15.05;;;12.48;;
40611;SDS011;26317;44.894;20.286;2023-11-19T04:47:02;18.02;;;12.98;;
40611;SDS011;26317;44.894;20.286;2023-11-19T04:49:39;17.98;;;12.52;;
40611;SDS011;26317;44.894;20.286;2023-11-19T04:52:14;15.77;;;12.10;;
40611;SDS011;26317;44.894;20.286;2023-11-19T04:55:10;17.48;;;12.52;;
40611;SDS011;26317;44.894;20.286;2023-11-19T04:57:47;16.58;;;12.55;;
40611;SDS011;26317;44.894;20.286;2023-11-19T05:00:32;16.02;;;13.38;;
40611;SDS011;26317;44.894;20.286;2023-11-19T05:03:11;18.55;;;12.88;;
40611;SDS011;26317;44.894;20.286;2023-11-19T05:05:47;14.80;;;11.73;;
40611;SDS011;26317;44.894;20.286;2023-11-19T05:08:33;14.35;;;12.23;;
40611;SDS011;26317;44.894;20.286;2023-11-19T05:11:21;16.67;;;12.65;;
40611;SDS011;26317;44.894;20.286;2023-11-19T05:14:00;15.50;;;12.15;;
40611;SDS011;26317;44.894;20.286;2023-11-19T05:16:40;20.02;;;16.17;;
40611;SDS011;26317;44.894;20.286;2023-11-19T05:19:17;20.63;;;15.20;;
40611;SDS011;26317;44.894;20.286;2023-11-19T05:21:52;18.48;;;15.18;;
40611;SDS011;26317;44.894;20.286;2023-11-19T05:24:29;17.90;;;14.80;;
40611;SDS011;26317;44.894;20.286;2023-11-19T05:27:20;16.10;;;13.60;;
40611;SDS011;26317;44.894;20.286;2023-11-19T05:29:58;20.50;;;14.73;;
40611;SDS011;26317;44.894;20.286;2023-11-19T05:32:41;13.80;;;12.10;;
40611;SDS011;26317;44.894;20.286;2023-11-19T05:35:16;17.83;;;12.98;;
40611;SDS011;26317;44.894;20.286;2023-11-19T05:37:54;16.27;;;12.90;;
40611;SDS011;26317;44.894;20.286;2023-11-19T05:40:39;13.32;;;11.93;;
40611;SDS011;26317;44.894;20.286;2023-11-19T05:45:57;13.75;;;10.70;;
40611;SDS011;26317;44.894;20.286;2023-11-19T05:48:45;13.43;;;11.60;;
40611;SDS011;26317;44.894;20.286;2023-11-19T05:51:23;12.88;;;11.35;;
40611;SDS011;26317;44.894;20.286;2023-11-19T05:54:01;16.42;;;12.45;;
40611;SDS011;26317;44.894;20.286;2023-11-19T05:56:47;14.25;;;10.98;;
40611;SDS011;26317;44.894;20.286;2023-11-19T05:59:31;15.02;;;10.95;;
40611;SDS011;26317;44.894;20.286;2023-11-19T06:02:15;16.67;;;11.32;;
40611;SDS011;26317;44.894;20.286;2023-11-19T06:04:58;14.85;;;13.02;;
40611;SDS011;26317;44.894;20.286;2023-11-19T06:07:42;14.25;;;12.02;;
40611;SDS011;26317;44.894;20.286;2023-11-19T06:10:22;17.30;;;12.05;;
40611;SDS011;26317;44.894;20.286;2023-11-19T06:13:03;19.60;;;11.80;;
40611;SDS011;26317;44.894;20.286;2023-11-19T06:16:06;17.65;;;11.68;;
40611;SDS011;26317;44.894;20.286;2023-11-19T06:18:48;18.38;;;12.20;;
40611;SDS011;26317;44.894;20.286;2023-11-19T06:21:27;13.20;;;11.65;;
40611;SDS011;26317;44.894;20.286;2023-11-19T06:24:01;17.40;;;12.63;;
40611;SDS011;26317;44.894;20.286;2023-11-19T06:26:43;15.77;;;11.43;;
40611;SDS011;26317;44.894;20.286;2023-11-19T06:29:19;14.77;;;11.35;;
40611;SDS011;26317;44.894;20.286;2023-11-19T06:32:05;16.02;;;12.02;;
40611;SDS011;26317;44.894;20.286;2023-11-19T06:34:43;16.85;;;11.57;;
40611;SDS011;26317;44.894;20.286;2023-11-19T06:37:22;13.93;;;11.00;;
40611;SDS011;26317;44.894;20.286;2023-11-19T06:39:57;17.60;;;11.35;;
40611;SDS011;26317;44.894;20.286;2023-11-19T06:42:39;16.17;;;11.65;;
40611;SDS011;26317;44.894;20.286;2023-11-19T06:45:19;13.43;;;9.70;;
40611;SDS011;26317;44.894;20.286;2023-11-19T06:47:59;14.65;;;10.05;;
40611;SDS011;26317;44.894;20.286;2023-11-19T06:50:46;14.55;;;11.13;;
40611;SDS011;26317;44.894;20.286;2023-11-19T06:53:29;15.27;;;12.93;;
40611;SDS011;26317;44.894;20.286;2023-11-19T06:56:31;14.82;;;11.60;;
40611;SDS011;26317;44.894;20.286;2023-11-19T06:59:06;18.40;;;13.35;;
40611;SDS011;26317;44.894;20.286;2023-11-19T07:01:38;13.70;;;10.95;;
40611;SDS011;26317;44.894;20.286;2023-11-19T07:04:23;13.85;;;10.93;;
40611;SDS011;26317;44.894;20.286;2023-11-19T07:07:01;12.23;;;10.48;;
40611;SDS011;26317;44.894;20.286;2023-11-19T07:09:41;11.52;;;10.32;;
40611;SDS011;26317;44.894;20.286;2023-11-19T07:12:18;10.95;;;9.63;;
40611;SDS011;26317;44.894;20.286;2023-11-19T07:15:00;11.30;;;9.48;;
40611;SDS011;26317;44.894;20.286;2023-11-19T07:17:35;8.82;;;7.72;;
40611;SDS011;26317;44.894;20.286;2023-11-19T07:20:33;9.00;;;8.10;;
40611;SDS011;26317;44.894;20.286;2023-11-19T07:25:51;10.98;;;9.02;;
40611;SDS011;26317;44.894;20.286;2023-11-19T07:28:35;12.40;;;9.63;;
40611;SDS011;26317;44.894;20.286;2023-11-19T07:31:09;10.95;;;9.52;;
40611;SDS011;26317;44.894;20.286;2023-11-19T07:33:51;11.13;;;9.48;;
40611;SDS011;26317;44.894;20.286;2023-11-19T07:36:35;11.70;;;9.50;;
40611;SDS011;26317;44.894;20.286;2023-11-19T07:39:12;10.60;;;9.57;;
40611;SDS011;26317;44.894;20.286;2023-11-19T07:41:46;11.55;;;9.43;;
40611;SDS011;26317;44.894;20.286;2023-11-19T07:44:35;10.45;;;9.15;;
40611;SDS011;26317;44.894;20.286;2023-11-19T07:47:15;11.88;;;9.63;;
40611;SDS011;26317;44.894;20.286;2023-11-19T07:49:59;11.57;;;10.07;;
40611;SDS011;26317;44.894;20.286;2023-11-19T07:55:35;10.18;;;9.18;;
40611;SDS011;26317;44.894;20.286;2023-11-19T07:58:13;10.25;;;9.20;;
40611;SDS011;26317;44.894;20.286;2023-11-19T08:00:50;13.25;;;11.48;;
40611;SDS011;26317;44.894;20.286;2023-11-19T08:03:36;16.02;;;14.35;;
40611;SDS011;26317;44.894;20.286;2023-11-19T08:06:28;12.45;;;11.15;;
40611;SDS011;26317;44.894;20.286;2023-11-19T08:09:04;13.65;;;9.52;;
40611;SDS011;26317;44.894;20.286;2023-11-19T08:11:47;11.38;;;8.90;;
40611;SDS011;26317;44.894;20.286;2023-11-19T08:14:19;12.15;;;9.90;;
40611;SDS011;26317;44.894;20.286;2023-11-19T08:17:01;10.65;;;9.05;;
40611;SDS011;26317;44.894;20.286;2023-11-19T08:19:41;20.15;;;14.52;;
40611;SDS011;26317;44.894;20.286;2023-11-19T08:22:24;16.17;;;13.65;;
40611;SDS011;26317;44.894;20.286;2023-11-19T08:25:31;10.50;;;8.85;;
40611;SDS011;26317;44.894;20.286;2023-11-19T08:28:09;10.55;;;8.70;;
40611;SDS011;26317;44.894;20.286;2023-11-19T08:30:51;11.63;;;8.45;;
40611;SDS011;26317;44.894;20.286;2023-11-19T08:33:30;10.27;;;8.30;;
40611;SDS011;26317;44.894;20.286;2023-11-19T08:36:17;11.15;;;7.97;;
40611;SDS011;26317;44.894;20.286;2023-11-19T08:38:58;10.55;;;8.63;;
40611;SDS011;26317;44.894;20.286;2023-11-19T08:41:48;12.75;;;9.52;;
40611;SDS011;26317;44.894;20.286;2023-11-19T08:44:27;28.60;;;21.20;;
40611;SDS011;26317;44.894;20.286;2023-11-19T08:47:00;16.90;;;14.20;;
40611;SDS011;26317;44.894;20.286;2023-11-19T08:49:39;10.13;;;8.07;;
40611;SDS011;26317;44.894;20.286;2023-11-19T08:52:31;10.07;;;8.98;;
40611;SDS011;26317;44.894;20.286;2023-11-19T08:55:12;9.60;;;7.97;;
40611;SDS011;26317;44.894;20.286;2023-11-19T08:58:02;9.23;;;7.80;;
40611;SDS011;26317;44.894;20.286;2023-11-19T09:00:35;9.00;;;7.65;;
40611;SDS011;26317;44.894;20.286;2023-11-19T09:03:15;10.20;;;8.75;;
40611;SDS011;26317;44.894;20.286;2023-11-19T09:05:56;13.10;;;8.50;;
40611;SDS011;26317;44.894;20.286;2023-11-19T09:08:33;8.65;;;7.55;;
40611;SDS011;26317;44.894;20.286;2023-11-19T09:11:06;9.38;;;7.90;;
40611;SDS011;26317;44.894;20.286;2023-11-19T09:14:00;8.23;;;7.43;;
40611;SDS011;26317;44.894;20.286;2023-11-19T09:16:42;9.03;;;7.97;;
40611;SDS011;26317;44.894;20.286;2023-11-19T09:19:17;11.70;;;8.55;;
40611;SDS011;26317;44.894;20.286;2023-11-19T09:21:54;9.32;;;7.75;;
40611;SDS011;26317;44.894;20.286;2023-11-19T09:24:30;11.00;;;8.52;;
40611;SDS011;26317;44.894;20.286;2023-11-19T09:27:18;10.18;;;8.30;;
40611;SDS011;26317;44.894;20.286;2023-11-19T09:29:57;9.68;;;8.27;;
40611;SDS011;26317;44.894;20.286;2023-11-19T09:32:43;15.82;;;12.35;;
40611;SDS011;26317;44.894;20.286;2023-11-19T09:35:16;8.57;;;7.68;;
40611;SDS011;26317;44.894;20.286;2023-11-19T09:38:02;9.00;;;7.00;;
40611;SDS011;26317;44.894;20.286;2023-11-19T09:40:42;7.15;;;6.45;;
40611;SDS011;26317;44.894;20.286;2023-11-19T09:43:28;10.20;;;9.20;;
40611;SDS011;26317;44.894;20.286;2023-11-19T09:46:10;7.82;;;6.93;;
40611;SDS011;26317;44.894;20.286;2023-11-19T09:48:52;9.32;;;6.80;;
40611;SDS011;26317;44.894;20.286;2023-11-19T09:51:41;8.55;;;7.13;;
40611;SDS011;26317;44.894;20.286;2023-11-19T09:54:21;7.30;;;6.60;;
40611;SDS011;26317;44.894;20.286;2023-11-19T09:57:06;9.32;;;6.75;;
40611;SDS011;26317;44.894;20.286;2023-11-19T09:59:46;7.38;;;6.60;;
40611;SDS011;26317;44.894;20.286;2023-11-19T10:02:24;7.03;;;6.38;;
40611;SDS011;26317;44.894;20.286;2023-11-19T10:05:20;7.03;;;6.13;;
40611;SDS011;26317;44.894;20.286;2023-11-19T10:08:12;6.43;;;5.70;;
40611;SDS011;26317;44.894;20.286;2023-11-19T10:10:50;7.35;;;6.13;;
40611;SDS011;26317;44.894;20.286;2023-11-19T10:13:36;6.68;;;5.63;;
40611;SDS011;26317;44.894;20.286;2023-11-19T10:16:12;12.38;;;8.63;;
40611;SDS011;26317;44.894;20.286;2023-11-19T10:18:58;6.72;;;5.63;;
40611;SDS011;26317;44.894;20.286;2023-11-19T10:21:33;6.13;;;5.18;;
40611;SDS011;26317;44.894;20.286;2023-11-19T10:24:22;6.07;;;5.38;;
40611;SDS011;26317;44.894;20.286;2023-11-19T10:27:16;6.07;;;5.07;;
40611;SDS011;26317;44.894;20.286;2023-11-19T10:29:53;9.68;;;8.20;;
40611;SDS011;26317;44.894;20.286;2023-11-19T10:32:41;5.32;;;4.82;;
40611;SDS011;26317;44.894;20.286;2023-11-19T10:35:28;4.72;;;4.32;;
40611;SDS011;26317;44.894;20.286;2023-11-19T10:38:12;5.30;;;4.80;;
40611;SDS011;26317;44.894;20.286;2023-11-19T10:40:54;6.05;;;4.63;;
40611;SDS011;26317;44.894;20.286;2023-11-19T10:43:29;4.95;;;4.45;;
40611;SDS011;26317;44.894;20.286;2023-11-19T10:46:20;9.95;;;4.10;;
40611;SDS011;26317;44.894;20.286;2023-11-19T10:49:11;4.68;;;3.90;;
40611;SDS011;26317;44.894;20.286;2023-11-19T10:52:04;4.57;;;4.18;;
40611;SDS011;26317;44.894;20.286;2023-11-19T10:54:42;10.18;;;6.43;;
40611;SDS011;26317;44.894;20.286;2023-11-19T10:57:23;4.82;;;4.28;;
40611;SDS011;26317;44.894;20.286;2023-11-19T11:00:09;4.43;;;4.03;;
40611;SDS011;26317;44.894;20.286;2023-11-19T11:02:56;5.10;;;4.03;;
40611;SDS011;26317;44.894;20.286;2023-11-19T11:05:47;5.25;;;4.32;;
40611;SDS011;26317;44.894;20.286;2023-11-19T11:08:36;5.80;;;4.38;;
40611;SDS011;26317;44.894;20.286;2023-11-19T11:11:22;4.70;;;4.30;;
40611;SDS011;26317;44.894;20.286;2023-11-19T11:14:09;4.90;;;4.20;;
40611;SDS011;26317;44.894;20.286;2023-11-19T11:16:56;4.55;;;4.15;;
40611;SDS011;26317;44.894;20.286;2023-11-19T11:19:38;5.60;;;5.10;;
40611;SDS011;26317;44.894;20.286;2023-11-19T11:22:32;5.07;;;4.15;;
40611;SDS011;26317;44.894;20.286;2023-11-19T11:25:34;3.90;;;3.50;;
40611;SDS011;26317;44.894;20.286;2023-11-19T11:28:30;4.03;;;3.63;;
40611;SDS011;26317;44.894;20.286;2023-11-19T11:31:16;3.45;;;3.15;;
40611;SDS011;26317;44.894;20.286;2023-11-19T11:37:25;6.07;;;4.38;;
40611;SDS011;26317;44.894;20.286;2023-11-19T11:40:24;6.57;;;5.10;;
40611;SDS011;26317;44.894;20.286;2023-11-19T11:43:05;4.90;;;4.50;;
40611;SDS011;26317;44.894;20.286;2023-11-19T11:49:28;6.05;;;5.05;;
40611;SDS011;26317;44.894;20.286;2023-11-19T11:52:12;6.90;;;6.10;;
40611;SDS011;26317;44.894;20.286;2023-11-19T11:54:47;5.28;;;4.22;;
40611;SDS011;26317;44.894;20.286;2023-11-19T11:57:22;5.50;;;4.22;;
40611;SDS011;26317;44.894;20.286;2023-11-19T12:00:16;4.30;;;3.80;;
40611;SDS011;26317;44.894;20.286;2023-11-19T12:03:02;4.38;;;3.80;;
40611;SDS011;26317;44.894;20.286;2023-11-19T12:05:49;4.60;;;3.58;;
40611;SDS011;26317;44.894;20.286;2023-11-19T12:08:40;3.60;;;3.25;;
40611;SDS011;26317;44.894;20.286;2023-11-19T12:11:35;4.32;;;3.83;;
40611;SDS011;26317;44.894;20.286;2023-11-19T12:14:17;6.25;;;3.40;;
40611;SDS011;26317;44.894;20.286;2023-11-19T12:20:29;4.13;;;3.22;;
40611;SDS011;26317;44.894;20.286;2023-11-19T12:23:19;4.03;;;3.63;;
40611;SDS011;26317;44.894;20.286;2023-11-19T12:25:58;4.07;;;3.67;;
40611;SDS011;26317;44.894;20.286;2023-11-19T12:28:38;3.88;;;3.55;;
40611;SDS011;26317;44.894;20.286;2023-11-19T12:31:15;3.47;;;3.17;;
40611;SDS011;26317;44.894;20.286;2023-11-19T12:34:04;11.80;;;8.75;;
40611;SDS011;26317;44.894;20.286;2023-11-19T12:36:51;8.18;;;4.80;;
40611;SDS011;26317;44.894;20.286;2023-11-19T12:39:31;11.93;;;8.88;;
40611;SDS011;26317;44.894;20.286;2023-11-19T12:42:08;11.13;;;7.50;;
40611;SDS011;26317;44.894;20.286;2023-11-19T12:45:01;20.67;;;14.43;;
40611;SDS011;26317;44.894;20.286;2023-11-19T12:47:47;4.38;;;3.95;;
40611;SDS011;26317;44.894;20.286;2023-11-19T12:50:32;7.50;;;5.38;;
40611;SDS011;26317;44.894;20.286;2023-11-19T12:53:46;10.43;;;4.15;;
40611;SDS011;26317;44.894;20.286;2023-11-19T12:56:34;4.45;;;3.72;;
40611;SDS011;26317;44.894;20.286;2023-11-19T12:59:19;4.20;;;3.77;;
40611;SDS011;26317;44.894;20.286;2023-11-19T13:01:57;4.38;;;3.72;;
40611;SDS011;26317;44.894;20.286;2023-11-19T13:04:30;4.55;;;3.70;;
40611;SDS011;26317;44.894;20.286;2023-11-19T13:07:05;4.28;;;3.88;;
40611;SDS011;26317;44.894;20.286;2023-11-19T13:09:47;9.25;;;8.32;;
40611;SDS011;26317;44.894;20.286;2023-11-19T13:12:26;5.10;;;4.47;;
40611;SDS011;26317;44.894;20.286;2023-11-19T13:15:01;4.43;;;4.03;;
40611;SDS011;26317;44.894;20.286;2023-11-19T13:17:43;3.97;;;3.58;;
40611;SDS011;26317;44.894;20.286;2023-11-19T13:20:27;4.28;;;3.38;;
40611;SDS011;26317;44.894;20.286;2023-11-19T13:23:05;5.30;;;3.47;;
40611;SDS011;26317;44.894;20.286;2023-11-19T13:25:57;4.20;;;3.70;;
40611;SDS011;26317;44.894;20.286;2023-11-19T13:28:38;6.50;;;4.07;;
40611;SDS011;26317;44.894;20.286;2023-11-19T13:31:15;4.25;;;3.88;;
40611;SDS011;26317;44.894;20.286;2023-11-19T13:33:50;4.13;;;3.35;;
40611;SDS011;26317;44.894;20.286;2023-11-19T13:36:31;5.15;;;4.45;;
40611;SDS011;26317;44.894;20.286;2023-11-19T13:39:15;4.57;;;3.65;;
40611;SDS011;26317;44.894;20.286;2023-11-19T13:41:50;4.43;;;4.03;;
40611;SDS011;26317;44.894;20.286;2023-11-19T13:44:50;8.40;;;3.85;;
40611;SDS011;26317;44.894;20.286;2023-11-19T13:47:29;6.47;;;5.55;;
40611;SDS011;26317;44.894;20.286;2023-11-19T13:50:08;5.75;;;4.32;;
40611;SDS011;26317;44.894;20.286;2023-11-19T13:53:06;13.25;;;10.38;;
40611;SDS011;26317;44.894;20.286;2023-11-19T13:55:42;6.03;;;5.43;;
40611;SDS011;26317;44.894;20.286;2023-11-19T13:58:18;4.80;;;4.30;;
40611;SDS011;26317;44.894;20.286;2023-11-19T14:00:54;4.43;;;3.90;;
40611;SDS011;26317;44.894;20.286;2023-11-19T14:03:36;5.90;;;4.82;;
40611;SDS011;26317;44.894;20.286;2023-11-19T14:06:43;4.75;;;4.32;;
40611;SDS011;26317;44.894;20.286;2023-11-19T14:09:21;8.13;;;6.10;;
40611;SDS011;26317;44.894;20.286;2023-11-19T14:12:05;6.10;;;5.28;;
40611;SDS011;26317;44.894;20.286;2023-11-19T14:14:43;7.00;;;5.90;;
40611;SDS011;26317;44.894;20.286;2023-11-19T14:17:43;8.63;;;6.68;;
40611;SDS011;26317;44.894;20.286;2023-11-19T14:20:20;9.05;;;6.63;;
40611;SDS011;26317;44.894;20.286;2023-11-19T14:23:03;9.85;;;6.43;;
40611;SDS011;26317;44.894;20.286;2023-11-19T14:25:37;8.85;;;6.53;;
40611;SDS011;26317;44.894;20.286;2023-11-19T14:28:36;6.97;;;6.20;;
40611;SDS011;26317;44.894;20.286;2023-11-19T14:31:17;7.07;;;5.60;;
40611;SDS011;26317;44.894;20.286;2023-11-19T14:33:51;8.88;;;6.43;;
40611;SDS011;26317;44.894;20.286;2023-11-19T14:36:35;12.50;;;8.65;;
40611;SDS011;26317;44.894;20.286;2023-11-19T14:41:47;29.15;;;14.73;;
40611;SDS011;26317;44.894;20.286;2023-11-19T14:44:27;47.67;;;22.85;;
40611;SDS011;26317;44.894;20.286;2023-11-19T14:47:23;38.88;;;21.55;;
40611;SDS011;26317;44.894;20.286;2023-11-19T14:50:05;29.60;;;16.48;;
40611;SDS011;26317;44.894;20.286;2023-11-19T14:52:44;14.38;;;9.20;;
40611;SDS011;26317;44.894;20.286;2023-11-19T14:55:22;12.93;;;9.30;;
40611;SDS011;26317;44.894;20.286;2023-11-19T14:58:01;10.63;;;8.65;;
40611;SDS011;26317;44.894;20.286;2023-11-19T15:00:54;12.98;;;8.52;;
40611;SDS011;26317;44.894;20.286;2023-11-19T15:03:28;9.85;;;8.05;;
40611;SDS011;26317;44.894;20.286;2023-11-19T15:06:23;10.95;;;8.98;;
40611;SDS011;26317;44.894;20.286;2023-11-19T15:09:09;12.23;;;8.85;;
40611;SDS011;26317;44.894;20.286;2023-11-19T15:11:56;15.77;;;11.63;;
40611;SDS011;26317;44.894;20.286;2023-11-19T15:14:34;23.38;;;16.75;;
40611;SDS011;26317;44.894;20.286;2023-11-19T15:17:25;26.27;;;18.33;;
40611;SDS011;26317;44.894;20.286;2023-11-19T15:20:06;17.80;;;14.50;;
40611;SDS011;26317;44.894;20.286;2023-11-19T15:22:47;17.48;;;12.60;;
40611;SDS011;26317;44.894;20.286;2023-11-19T15:25:24;18.38;;;12.30;;
40611;SDS011;26317;44.894;20.286;2023-11-19T15:27:58;15.02;;;11.85;;
40611;SDS011;26317;44.894;20.286;2023-11-19T15:30:37;14.57;;;12.02;;
40611;SDS011;26317;44.894;20.286;2023-11-19T15:33:24;14.32;;;11.32;;
40611;SDS011;26317;44.894;20.286;2023-11-19T15:35:59;13.95;;;10.85;;
40611;SDS011;26317;44.894;20.286;2023-11-19T15:38:39;16.23;;;12.45;;
40611;SDS011;26317;44.894;20.286;2023-11-19T15:41:22;14.38;;;11.55;;
40611;SDS011;26317;44.894;20.286;2023-11-19T15:44:01;15.27;;;11.95;;
40611;SDS011;26317;44.894;20.286;2023-11-19T15:46:59;15.05;;;12.18;;
40611;SDS011;26317;44.894;20.286;2023-11-19T15:49:40;16.73;;;13.95;;
40611;SDS011;26317;44.894;20.286;2023-11-19T15:52:16;19.67;;;15.10;;
40611;SDS011;26317;44.894;20.286;2023-11-19T15:55:00;19.33;;;14.88;;
40611;SDS011;26317;44.894;20.286;2023-11-19T15:57:52;25.30;;;16.63;;
40611;SDS011;26317;44.894;20.286;2023-11-19T16:00:33;20.30;;;15.23;;
40611;SDS011;26317;44.894;20.286;2023-11-19T16:03:11;22.02;;;17.30;;
40611;SDS011;26317;44.894;20.286;2023-11-19T16:05:59;21.08;;;16.95;;
40611;SDS011;26317;44.894;20.286;2023-11-19T16:08:40;22.23;;;16.95;;
40611;SDS011;26317;44.894;20.286;2023-11-19T16:11:20;26.65;;;18.08;;
40611;SDS011;26317;44.894;20.286;2023-11-19T16:14:14;25.88;;;17.98;;